Ne plus se rappeler de moi
Bonjour et Bienvenue
Pas de session ouverte
Mercredi 04/03/2015
d:\inetpub\wwwroot\acrroussillon\reservation\ACR\IMAGES\IMG1.JPGd:\inetpub\wwwroot\acrroussillon\reservation\ACR\IMAGES\IMG2.JPGd:\inetpub\wwwroot\acrroussillon\reservation\ACR/IMAGES/IMG3.jpg
00:00:00
Horaires du 04/03/2015 (Données à titre indicatif seulement).
Lever du soleil : 07h19 - Coucher du soleil : 18h41 (Heure Locale)
Jour aéronautique : 06h49 - Nuit aéronautique : 19h11 (Heure Locale)
Planning des réservations des aéronefs
Planning des réservations des aéronefs
2015/03/04 11:00
LFMP 041100Z AUTO 31019G33KT 9999 FEW036 OVC100 10/02 Q1028
Planning des réservations des aéronefs
2015/03/04 06:15
TAF LFMP 040500Z 0406/0506 30015KT 9999 BKN030 OVC060
BECMG 0409/0411 30020G40KT NSC PROB30
TEMPO 0423/0506 31030G50KT
Informations sur les aéronefs
Informations sur les aéronefs
Modifications des Types de vols
ATTENTION PLUS DE PAIEMENT EN LIGNE DEPUIS LA MAISON
AEROCLUB DU ROUSSILLON. AVENUE MAURICE BELLONTE. 66000 PERPIGNAN. Tel : 04.68.73.48.18 Fax : 09.55.16.18.97 Courriel : aeroclub-roussillon@hotmail.fr
 METAR / TAF
LIENS UTILES
envoyer un e-mail
d:\inetpub\wwwroot\acrroussillon\reservation\ACR/IMAGES/Logo.jpg
Identifiez vous pour interaction
d:\inetpub\wwwroot\acrroussillon\reservation\ACR/IMAGES/Logo.jpg
Aéro-Club du Roussillon